Time;durP1;ratioP1;P1;durP2;ratioP2;P2;SDS_P1;SDS_P2;PMS_P1;PMS_P2;Temp;Humidity;BMP_temperature;BMP_pressure;BME280_temperature;BME280_humidity;BME280_pressure;Samples;Min_cycle;Max_cycle;Signal;HPM_P1;HPM_P2
2022/09/02 00:00:12;;;;;;;4.68;0.93;;;14.90;99.90;;;;;;4990762;28;20034;-72
2022/09/02 00:02:38;;;;;;;4.70;0.80;;;14.90;99.90;;;;;;4993746;28;20400;-72
2022/09/02 00:05:05;;;;;;;1.75;0.93;;;14.90;99.90;;;;;;4995609;28;20052;-72
2022/09/02 00:07:31;;;;;;;3.08;1.10;;;14.90;99.90;;;;;;4973426;28;20046;-72
2022/09/02 00:09:59;;;;;;;2.15;1.10;;;14.80;99.90;;;;;;5009061;28;20055;-72
2022/09/02 00:12:25;;;;;;;4.22;0.85;;;14.80;99.90;;;;;;4988380;28;20056;-72
2022/09/02 00:14:50;;;;;;;2.05;1.02;;;14.80;99.90;;;;;;5009650;28;20033;-72
2022/09/02 00:17:16;;;;;;;4.15;0.90;;;14.70;99.90;;;;;;5008378;28;20499;-73
2022/09/02 00:19:42;;;;;;;1.50;1.10;;;14.70;99.90;;;;;;4989686;28;20046;-72
2022/09/02 00:22:08;;;;;;;1.08;0.75;;;14.70;99.90;;;;;;5007686;28;20037;-72
2022/09/02 00:24:34;;;;;;;1.27;1.05;;;14.70;99.90;;;;;;4992690;28;20042;-72
2022/09/02 00:27:00;;;;;;;2.08;1.10;;;14.60;99.90;;;;;;4991948;28;20044;-72
2022/09/02 00:29:27;;;;;;;0.80;0.80;;;14.60;99.90;;;;;;5007557;28;20040;-72
2022/09/02 00:31:53;;;;;;;2.85;0.90;;;14.60;99.90;;;;;;4989796;28;20052;-72
2022/09/02 00:34:19;;;;;;;1.88;1.00;;;14.50;99.90;;;;;;4989554;28;20486;-72
2022/09/02 00:36:45;;;;;;;1.88;0.93;;;14.50;99.90;;;;;;5005971;28;20038;-72
2022/09/02 00:39:11;;;;;;;2.83;0.95;;;14.50;99.90;;;;;;4990329;28;20034;-72
2022/09/02 00:41:38;;;;;;;1.60;0.90;;;14.50;99.90;;;;;;4990923;28;20488;-72
2022/09/02 00:44:08;;;;;;;1.25;1.00;;;14.40;99.90;;;;;;5006353;28;20095;-72
2022/09/02 00:46:34;;;;;;;1.92;1.00;;;14.40;99.90;;;;;;4990758;28;20038;-72
2022/09/02 00:49:35;;;;;;;4.78;1.00;;;14.40;99.90;;;;;;4986953;28;20050;-72
2022/09/02 00:52:08;;;;;;;1.05;0.90;;;14.40;99.90;;;;;;4948663;28;20058;-72
2022/09/02 00:54:42;;;;;;;2.65;1.27;;;14.30;99.90;;;;;;5008195;28;20030;-72
2022/09/02 00:57:14;;;;;;;1.98;0.90;;;14.30;99.90;;;;;;5007822;28;20033;-72
2022/09/02 01:00:05;;;;;;;1.25;0.80;;;14.30;99.90;;;;;;4992881;28;20049;-72
2022/09/02 01:02:31;;;;;;;5.78;1.17;;;14.20;99.90;;;;;;4991193;28;20048;-72
2022/09/02 01:04:58;;;;;;;4.05;1.52;;;14.20;99.90;;;;;;4991364;28;20103;-72
2022/09/02 01:07:28;;;;;;;4.32;0.98;;;14.10;99.90;;;;;;4989547;28;20065;-72
2022/09/02 01:09:56;;;;;;;3.08;1.00;;;14.10;99.90;;;;;;4994707;28;20046;-72
2022/09/02 01:12:23;;;;;;;2.90;0.90;;;14.10;99.90;;;;;;4988107;28;20069;-72
2022/09/02 01:14:49;;;;;;;1.80;1.00;;;14.10;99.90;;;;;;5006714;28;20037;-72
2022/09/02 01:17:19;;;;;;;5.70;0.95;;;14.00;99.90;;;;;;5007726;28;20402;-72
2022/09/02 01:19:49;;;;;;;2.75;0.80;;;14.00;99.90;;;;;;4990914;28;20153;-72
2022/09/02 01:22:18;;;;;;;3.42;1.00;;;14.00;99.90;;;;;;4989460;28;20041;-72
2022/09/02 01:24:44;;;;;;;1.33;0.95;;;13.90;99.90;;;;;;4992479;28;20057;-72
2022/09/02 01:27:17;;;;;;;1.63;1.00;;;13.90;99.90;;;;;;5007159;28;20547;-72
2022/09/02 01:29:43;;;;;;;0.88;0.88;;;13.90;99.90;;;;;;4991320;28;20406;-72
2022/09/02 01:32:10;;;;;;;1.73;0.90;;;13.90;99.90;;;;;;4997701;28;20046;-72
2022/09/02 01:34:36;;;;;;;4.53;0.90;;;13.80;99.90;;;;;;4988857;28;20038;-72
2022/09/02 01:37:02;;;;;;;2.58;1.08;;;13.80;99.90;;;;;;5006410;28;20046;-72
2022/09/02 01:39:28;;;;;;;2.00;1.08;;;13.80;99.90;;;;;;4986649;28;20044;-72
2022/09/02 01:41:54;;;;;;;1.20;1.10;;;13.80;99.90;;;;;;4987564;28;20475;-72
2022/09/02 01:44:20;;;;;;;2.17;1.00;;;13.80;99.90;;;;;;5002644;28;20042;-72
2022/09/02 01:46:46;;;;;;;1.13;1.00;;;13.80;99.90;;;;;;4988117;28;20126;-72
2022/09/02 01:49:12;;;;;;;0.93;0.80;;;13.80;99.90;;;;;;4987197;28;20138;-72
2022/09/02 01:51:38;;;;;;;6.25;1.10;;;13.80;99.90;;;;;;5004569;28;20081;-72
2022/09/02 01:54:04;;;;;;;1.63;0.90;;;13.70;99.90;;;;;;4988822;28;20042;-72
2022/09/02 01:56:30;;;;;;;2.05;1.00;;;13.80;99.90;;;;;;5003638;28;20048;-72
2022/09/02 01:58:56;;;;;;;1.25;1.00;;;13.70;99.90;;;;;;4989350;28;20038;-72
2022/09/02 02:01:22;;;;;;;1.13;0.90;;;13.70;99.90;;;;;;4994177;28;20030;-72
2022/09/02 02:03:48;;;;;;;2.90;1.10;;;13.70;99.90;;;;;;5004830;28;22103;-72
2022/09/02 02:06:16;;;;;;;0.95;0.90;;;13.70;99.90;;;;;;4995156;28;20697;-72
2022/09/02 02:08:42;;;;;;;2.97;1.00;;;13.70;99.90;;;;;;4986416;28;20038;-72
2022/09/02 02:11:08;;;;;;;1.60;0.98;;;13.60;99.90;;;;;;4990775;28;20045;-72
2022/09/02 02:13:35;;;;;;;3.08;1.00;;;13.60;99.90;;;;;;4988169;28;20083;-72
2022/09/02 02:16:01;;;;;;;3.05;0.88;;;13.60;99.90;;;;;;4989883;28;20053;-72
2022/09/02 02:18:28;;;;;;;1.55;0.82;;;13.60;99.90;;;;;;4991044;28;20034;-72
2022/09/02 02:20:54;;;;;;;2.75;1.00;;;13.60;99.90;;;;;;4989083;28;20061;-72
2022/09/02 02:23:21;;;;;;;2.38;0.95;;;13.60;99.90;;;;;;5004695;28;20042;-72
2022/09/02 02:25:46;;;;;;;2.47;1.05;;;13.50;99.90;;;;;;4991987;28;20053;-72
2022/09/02 02:28:13;;;;;;;0.95;0.75;;;13.50;99.90;;;;;;4990345;28;20472;-72
2022/09/02 02:30:39;;;;;;;1.40;1.02;;;13.50;99.90;;;;;;4990786;28;20041;-72
2022/09/02 02:33:04;;;;;;;2.60;1.10;;;13.50;99.90;;;;;;4987850;28;20520;-72
2022/09/02 02:35:30;;;;;;;6.68;1.20;;;13.50;99.90;;;;;;5006028;28;20527;-72
2022/09/02 02:37:56;;;;;;;3.95;1.05;;;13.40;99.90;;;;;;5004997;28;20041;-72
2022/09/02 02:40:23;;;;;;;2.95;1.55;;;13.40;99.90;;;;;;4988065;28;20061;-72
2022/09/02 02:42:52;;;;;;;3.10;1.10;;;13.40;99.90;;;;;;5005871;28;20038;-72
2022/09/02 02:45:19;;;;;;;3.90;1.00;;;13.40;99.90;;;;;;4988006;28;20084;-72
2022/09/02 02:47:48;;;;;;;4.38;1.10;;;13.40;99.90;;;;;;5006005;28;20076;-72
2022/09/02 02:50:16;;;;;;;1.42;0.95;;;13.40;99.90;;;;;;4987704;28;20037;-72
2022/09/02 02:52:42;;;;;;;7.22;1.38;;;13.30;99.90;;;;;;4988468;28;20081;-72
2022/09/02 02:55:11;;;;;;;2.28;1.10;;;13.30;99.90;;;;;;4990286;28;20061;-72
2022/09/02 02:57:38;;;;;;;3.05;1.10;;;13.30;99.90;;;;;;4992461;28;20042;-72
2022/09/02 03:00:11;;;;;;;1.50;1.05;;;13.30;99.90;;;;;;4991799;28;20056;-72
2022/09/02 03:02:37;;;;;;;1.60;1.10;;;13.20;99.90;;;;;;5003675;28;20034;-72
2022/09/02 03:05:04;;;;;;;1.52;1.30;;;13.20;99.90;;;;;;4987760;28;20057;-72
2022/09/02 03:07:30;;;;;;;3.75;1.27;;;13.20;99.90;;;;;;5006253;28;20127;-72
2022/09/02 03:09:56;;;;;;;1.92;1.10;;;13.20;99.90;;;;;;4977711;28;20578;-72
2022/09/02 03:12:22;;;;;;;1.15;0.90;;;13.20;99.90;;;;;;5004461;28;20044;-72
2022/09/02 03:14:48;;;;;;;3.65;1.10;;;13.10;99.90;;;;;;5006313;28;20057;-71
2022/09/02 03:17:14;;;;;;;1.77;0.90;;;13.10;99.90;;;;;;4989284;28;20493;-72
2022/09/02 03:19:39;;;;;;;2.38;0.90;;;13.10;99.90;;;;;;4986716;28;20053;-72
2022/09/02 03:22:05;;;;;;;2.67;1.00;;;13.10;99.90;;;;;;5005420;28;20525;-72
2022/09/02 03:24:31;;;;;;;1.77;1.00;;;13.00;99.90;;;;;;5006228;28;20558;-72
2022/09/02 03:26:57;;;;;;;4.50;1.20;;;13.00;99.90;;;;;;4989941;28;20033;-72
2022/09/02 03:29:23;;;;;;;1.75;1.15;;;13.00;99.90;;;;;;4987067;28;20505;-72
2022/09/02 03:31:48;;;;;;;2.38;1.10;;;13.00;99.90;;;;;;4987052;28;20038;-72
2022/09/02 03:34:14;;;;;;;1.98;1.15;;;12.90;99.90;;;;;;4987327;28;20070;-72
2022/09/02 03:36:42;;;;;;;4.00;1.02;;;13.00;99.90;;;;;;4987980;28;20033;-72
2022/09/02 03:39:09;;;;;;;3.10;1.20;;;13.00;99.90;;;;;;5003857;28;20092;-72
2022/09/02 03:41:34;;;;;;;4.35;1.02;;;13.00;99.90;;;;;;4985412;28;20165;-72
2022/09/02 03:44:00;;;;;;;2.45;1.00;;;13.00;99.90;;;;;;4987974;28;20128;-72
2022/09/02 03:46:27;;;;;;;1.20;1.10;;;12.90;99.90;;;;;;4987104;28;20396;-72
2022/09/02 03:48:52;;;;;;;2.17;1.08;;;13.00;99.90;;;;;;4988136;28;20412;-72
2022/09/02 03:51:22;;;;;;;1.60;1.10;;;13.00;99.90;;;;;;5002032;28;20045;-71
2022/09/02 03:53:49;;;;;;;3.33;1.20;;;13.00;99.90;;;;;;4982804;28;20405;-72
2022/09/02 03:56:15;;;;;;;1.83;1.05;;;13.00;99.90;;;;;;4999867;28;20030;-71
2022/09/02 03:58:44;;;;;;;1.58;1.00;;;13.00;99.90;;;;;;4986506;28;20045;-72
2022/09/02 04:01:21;;;;;;;2.65;1.25;;;12.90;99.90;;;;;;5002384;28;20565;-72
2022/09/02 04:03:47;;;;;;;1.67;1.30;;;12.90;99.90;;;;;;4985698;28;20038;-72
2022/09/02 04:06:15;;;;;;;1.80;1.25;;;12.90;99.90;;;;;;5002099;28;20443;-72
2022/09/02 04:08:43;;;;;;;2.80;1.33;;;12.90;99.90;;;;;;4986342;28;20038;-72
2022/09/02 04:11:16;;;;;;;3.22;1.40;;;12.80;99.90;;;;;;5002688;28;20350;-71
2022/09/02 04:13:43;;;;;;;1.27;1.10;;;12.80;99.90;;;;;;5001279;28;20044;-72
2022/09/02 04:16:12;;;;;;;5.03;1.35;;;12.80;99.90;;;;;;4984543;28;20097;-72
2022/09/02 04:18:39;;;;;;;2.63;1.33;;;12.80;99.90;;;;;;4967720;28;20042;-72
2022/09/02 04:21:05;;;;;;;4.40;1.45;;;12.70;99.90;;;;;;4996303;28;20055;-72
2022/09/02 04:23:32;;;;;;;4.80;1.35;;;12.70;99.90;;;;;;4972318;28;20038;-71
2022/09/02 04:26:01;;;;;;;1.55;1.38;;;12.70;99.90;;;;;;4987568;28;20512;-72
2022/09/02 04:28:27;;;;;;;1.20;1.10;;;12.60;99.90;;;;;;4980005;28;20079;-72
2022/09/02 04:30:53;;;;;;;2.10;1.20;;;12.70;99.90;;;;;;4985244;28;20042;-72
2022/09/02 04:33:18;;;;;;;1.25;1.10;;;12.70;99.90;;;;;;4985594;28;20128;-72
2022/09/02 04:35:48;;;;;;;3.03;1.38;;;12.70;99.90;;;;;;4984563;28;20081;-72
2022/09/02 04:38:15;;;;;;;3.42;1.25;;;12.70;99.90;;;;;;4987624;28;20042;-72
2022/09/02 04:40:43;;;;;;;3.35;1.30;;;12.60;99.90;;;;;;4988955;28;20034;-72
2022/09/02 04:43:09;;;;;;;3.35;1.20;;;12.60;99.90;;;;;;5007373;28;20045;-71
2022/09/02 04:45:39;;;;;;;1.20;1.10;;;12.60;99.90;;;;;;4988909;28;20099;-72
2022/09/02 04:48:05;;;;;;;4.32;1.20;;;12.60;99.90;;;;;;4975016;28;20398;-72
2022/09/02 04:50:31;;;;;;;1.58;1.20;;;12.60;99.90;;;;;;5003910;28;20053;-71
2022/09/02 04:52:58;;;;;;;2.75;1.42;;;12.60;99.90;;;;;;4989244;28;20038;-72
2022/09/02 04:55:24;;;;;;;1.60;1.30;;;12.60;99.90;;;;;;4988680;28;20091;-72
2022/09/02 04:57:50;;;;;;;2.95;1.33;;;12.60;99.90;;;;;;4992149;28;20061;-72
2022/09/02 05:00:17;;;;;;;2.88;1.30;;;12.60;99.90;;;;;;5002826;28;20069;-72
2022/09/02 05:02:43;;;;;;;3.83;1.30;;;12.60;99.90;;;;;;4989327;28;20053;-72
2022/09/02 05:05:09;;;;;;;4.38;1.40;;;12.60;99.90;;;;;;4988831;28;20051;-72
2022/09/02 05:07:36;;;;;;;3.50;1.25;;;12.50;99.90;;;;;;4986516;28;20046;-72
2022/09/02 05:10:04;;;;;;;1.70;1.20;;;12.60;99.90;;;;;;4988822;28;20721;-72
2022/09/02 05:12:34;;;;;;;6.10;1.50;;;12.60;99.90;;;;;;4985573;28;20034;-71
2022/09/02 05:15:00;;;;;;;3.38;1.42;;;12.60;99.90;;;;;;4990383;28;20132;-72
2022/09/02 05:17:30;;;;;;;5.53;1.70;;;12.60;99.90;;;;;;4987920;28;20058;-72
2022/09/02 05:19:56;;;;;;;7.03;1.40;;;12.70;99.90;;;;;;4989733;28;20042;-71
2022/09/02 05:22:22;;;;;;;6.75;1.60;;;12.70;99.90;;;;;;4986303;28;20049;-72
2022/09/02 05:24:47;;;;;;;4.85;1.60;;;12.70;99.90;;;;;;4972860;28;20488;-72
2022/09/02 05:27:15;;;;;;;3.67;1.50;;;12.70;99.90;;;;;;4988328;28;20054;-72
2022/09/02 05:29:41;;;;;;;3.88;1.10;;;12.70;99.90;;;;;;4991438;28;20129;-72
2022/09/02 05:32:07;;;;;;;3.03;1.30;;;12.80;99.90;;;;;;5003650;28;20046;-71
2022/09/02 05:34:34;;;;;;;2.00;1.30;;;12.80;99.90;;;;;;4987045;28;20118;-70
2022/09/02 05:37:01;;;;;;;1.88;1.30;;;12.80;99.90;;;;;;4987897;28;20132;-70
2022/09/02 05:39:27;;;;;;;3.50;1.60;;;12.80;99.90;;;;;;4986886;28;20041;-70
2022/09/02 05:41:52;;;;;;;1.73;1.30;;;12.80;99.90;;;;;;5005616;28;20046;-70
2022/09/02 05:44:18;;;;;;;3.15;1.50;;;12.80;99.90;;;;;;4989102;28;20042;-70
2022/09/02 05:46:45;;;;;;;2.28;1.50;;;12.90;99.90;;;;;;4988929;28;20045;-70
2022/09/02 05:49:17;;;;;;;4.53;1.40;;;12.90;99.90;;;;;;4989352;28;20042;-70
2022/09/02 05:52:01;;;;;;;3.83;1.60;;;13.10;99.90;;;;;;4987354;28;20116;-70
2022/09/02 05:54:30;;;;;;;4.10;1.30;;;13.00;99.90;;;;;;4993154;28;20061;-70
2022/09/02 05:56:59;;;;;;;2.25;1.30;;;13.10;99.90;;;;;;5005225;28;20062;-70
2022/09/02 05:59:27;;;;;;;2.70;1.20;;;13.10;99.90;;;;;;5003858;28;20049;-70
2022/09/02 06:01:53;;;;;;;2.30;1.30;;;13.10;99.90;;;;;;4992327;28;20066;-70
2022/09/02 06:04:21;;;;;;;4.07;1.60;;;13.20;99.90;;;;;;5004333;28;20037;-70
2022/09/02 06:06:48;;;;;;;5.10;1.50;;;13.30;99.90;;;;;;5000678;28;20037;-70
2022/09/02 06:09:18;;;;;;;4.22;1.52;;;13.30;99.90;;;;;;4990918;28;20034;-70
2022/09/02 06:11:48;;;;;;;2.60;1.48;;;13.30;99.90;;;;;;5003204;28;20042;-70
2022/09/02 06:14:16;;;;;;;2.40;1.30;;;13.40;99.90;;;;;;4986033;28;20041;-70
2022/09/02 06:16:42;;;;;;;4.30;1.63;;;13.50;99.90;;;;;;4986486;28;20061;-70
2022/09/02 06:19:09;;;;;;;3.50;1.52;;;13.50;99.90;;;;;;4988626;28;20125;-70
2022/09/02 06:21:36;;;;;;;2.17;1.40;;;13.60;99.90;;;;;;4987580;28;20053;-70
2022/09/02 06:24:08;;;;;;;5.80;1.40;;;13.70;99.90;;;;;;5003411;28;20042;-71
2022/09/02 06:26:35;;;;;;;5.43;1.33;;;13.80;99.90;;;;;;4986568;28;20042;-71
2022/09/02 06:29:03;;;;;;;3.78;1.33;;;13.80;99.90;;;;;;4983725;28;20048;-71
2022/09/02 06:31:28;;;;;;;2.53;1.40;;;13.90;99.90;;;;;;4985291;28;20127;-69
2022/09/02 06:33:55;;;;;;;5.50;1.50;;;13.90;99.90;;;;;;4987952;28;20132;-70
2022/09/02 06:36:23;;;;;;;5.97;1.60;;;14.00;99.90;;;;;;4988206;28;20034;-70
2022/09/02 06:38:50;;;;;;;4.68;1.48;;;14.10;99.90;;;;;;5008392;28;20041;-70
2022/09/02 06:41:21;;;;;;;6.85;1.60;;;14.20;99.90;;;;;;4992579;28;20040;-71
2022/09/02 06:43:48;;;;;;;6.70;1.83;;;14.20;99.90;;;;;;4989905;28;20042;-71
2022/09/02 06:46:20;;;;;;;2.30;1.30;;;14.30;99.90;;;;;;4993200;28;20057;-71
2022/09/02 06:48:47;;;;;;;7.85;1.63;;;14.40;99.90;;;;;;4975387;28;20037;-71
2022/09/02 06:51:32;;;;;;;3.13;1.50;;;14.50;99.90;;;;;;4988450;28;20041;-71
2022/09/02 06:53:58;;;;;;;3.45;1.60;;;14.50;99.90;;;;;;4990553;28;20561;-72
2022/09/02 06:56:25;;;;;;;2.60;1.40;;;14.60;99.90;;;;;;4980776;28;20045;-72
2022/09/02 06:58:51;;;;;;;3.80;1.40;;;14.70;99.90;;;;;;4985944;28;20713;-72
2022/09/02 07:01:23;;;;;;;3.85;1.52;;;14.70;99.90;;;;;;4991405;28;20040;-72
2022/09/02 07:06:36;;;;;;;2.63;1.33;;;14.90;99.90;;;;;;4994147;28;20046;-70
2022/09/02 07:09:07;;;;;;;3.70;1.60;;;15.00;99.90;;;;;;5002500;28;20049;-72
2022/09/02 07:11:33;;;;;;;5.32;1.40;;;15.20;99.90;;;;;;4995843;28;20045;-72
2022/09/02 07:14:00;;;;;;;5.05;1.45;;;15.30;99.90;;;;;;4982844;28;20120;-72
2022/09/02 07:16:28;;;;;;;4.82;1.60;;;15.40;99.90;;;;;;5006328;28;20049;-72
2022/09/02 07:18:56;;;;;;;3.38;1.40;;;15.50;99.90;;;;;;4996325;28;20029;-72
2022/09/02 07:21:22;;;;;;;3.15;1.63;;;15.60;99.90;;;;;;4991032;28;20038;-72
2022/09/02 07:23:48;;;;;;;4.57;1.52;;;15.70;99.90;;;;;;4991214;28;20040;-72
2022/09/02 07:26:16;;;;;;;3.55;1.67;;;15.80;99.90;;;;;;5007806;28;20065;-72
2022/09/02 07:28:42;;;;;;;3.50;1.45;;;16.00;99.90;;;;;;4992752;28;20038;-72
2022/09/02 07:31:09;;;;;;;5.03;1.45;;;16.20;99.90;;;;;;5000791;28;20534;-71
2022/09/02 07:33:35;;;;;;;4.40;1.55;;;16.30;99.90;;;;;;4998574;28;20120;-71
2022/09/02 07:36:03;;;;;;;3.65;1.70;;;16.40;99.90;;;;;;4989847;28;20444;-71
2022/09/02 07:38:30;;;;;;;7.40;1.50;;;16.60;99.90;;;;;;4988430;28;20034;-75
2022/09/02 07:40:56;;;;;;;178.60;48.92;;;16.70;99.90;;;;;;4999122;28;20050;-75
2022/09/02 07:43:21;;;;;;;7.10;2.22;;;16.80;99.90;;;;;;4986432;28;20527;-75
2022/09/02 07:45:49;;;;;;;251.05;68.72;;;16.80;99.90;;;;;;4987077;28;20038;-75
2022/09/02 07:48:15;;;;;;;72.43;21.33;;;16.90;99.90;;;;;;4990047;28;20041;-74
2022/09/02 07:50:41;;;;;;;80.53;21.33;;;16.90;99.90;;;;;;4991893;28;20489;-75
2022/09/02 07:53:07;;;;;;;362.08;82.75;;;17.00;99.90;;;;;;4985246;28;20432;-75
2022/09/02 07:55:35;;;;;;;83.57;27.35;;;17.10;99.90;;;;;;4987650;28;21485;-75
2022/09/02 07:58:01;;;;;;;73.95;19.52;;;17.00;99.90;;;;;;4975580;28;20034;-74
2022/09/02 08:00:27;;;;;;;112.20;27.13;;;17.10;99.90;;;;;;4978866;28;20030;-74
2022/09/02 08:02:54;;;;;;;9.15;2.45;;;17.10;99.90;;;;;;5001003;28;20053;-74
2022/09/02 08:05:20;;;;;;;4.32;1.52;;;17.20;99.90;;;;;;5004361;28;20068;-74
2022/09/02 08:07:52;;;;;;;6.68;1.23;;;17.30;99.90;;;;;;4989446;28;20042;-74
2022/09/02 08:10:19;;;;;;;4.03;1.55;;;17.40;99.90;;;;;;4992318;28;20042;-74
2022/09/02 08:12:45;;;;;;;5.93;1.42;;;17.60;99.90;;;;;;4991020;28;20053;-74
2022/09/02 08:15:12;;;;;;;5.63;1.38;;;17.80;99.90;;;;;;5004585;28;20038;-74
2022/09/02 08:17:40;;;;;;;7.53;1.25;;;17.80;99.90;;;;;;4980781;28;20111;-74
2022/09/02 08:20:13;;;;;;;6.53;1.35;;;18.00;99.90;;;;;;4996092;28;20400;-74
2022/09/02 08:22:39;;;;;;;7.22;1.30;;;18.20;99.90;;;;;;4996488;28;20381;-74
2022/09/02 08:25:06;;;;;;;5.25;1.50;;;18.20;99.90;;;;;;4997538;28;20424;-75
2022/09/02 08:27:33;;;;;;;6.10;1.40;;;18.30;99.90;;;;;;4994523;28;20046;-75
2022/09/02 08:30:00;;;;;;;5.95;1.35;;;18.50;99.90;;;;;;4995717;28;20084;-75
2022/09/02 08:32:27;;;;;;;3.70;1.23;;;18.60;99.90;;;;;;4994664;28;20042;-75
2022/09/02 08:34:53;;;;;;;1.98;1.20;;;18.70;99.90;;;;;;4993744;28;20063;-75
2022/09/02 08:37:18;;;;;;;2.60;1.25;;;18.80;99.90;;;;;;4997936;28;20030;-75
2022/09/02 08:39:47;;;;;;;5.07;1.58;;;19.00;99.90;;;;;;5004618;28;20038;-75
2022/09/02 08:42:31;;;;;;;2.63;1.25;;;19.10;99.90;;;;;;4977158;28;20167;-75
2022/09/02 08:45:11;;;;;;;5.25;1.40;;;19.20;99.90;;;;;;4999509;28;20042;-76
2022/09/02 08:47:39;;;;;;;6.68;1.30;;;19.30;99.90;;;;;;4993064;28;20129;-75
2022/09/02 08:50:17;;;;;;;13.13;3.10;;;19.40;99.90;;;;;;4996751;28;20053;-76
2022/09/02 08:53:07;;;;;;;28.45;9.70;;;19.50;99.90;;;;;;5002011;28;20134;-77
2022/09/02 08:55:49;;;;;;;4.50;1.10;;;19.60;99.90;;;;;;4993427;28;20485;-76
2022/09/02 08:58:19;;;;;;;2.05;1.30;;;19.70;98.90;;;;;;4988563;28;20045;-75
2022/09/02 09:01:07;;;;;;;3.08;1.10;;;19.90;98.80;;;;;;5010896;28;20109;-75
2022/09/02 09:03:59;;;;;;;6.03;1.23;;;20.00;99.00;;;;;;4997748;28;20044;-74
2022/09/02 09:06:40;;;;;;;9.95;1.45;;;20.10;98.60;;;;;;4991068;28;20396;-75
2022/09/02 09:09:09;;;;;;;7.03;1.10;;;20.20;98.40;;;;;;4978648;28;20033;-75
2022/09/02 09:12:01;;;;;;;3.97;1.17;;;20.30;97.80;;;;;;4986726;28;20115;-75
2022/09/02 09:14:49;;;;;;;5.43;1.20;;;20.50;97.90;;;;;;4984304;28;20481;-75
2022/09/02 09:17:37;;;;;;;4.72;1.17;;;20.60;97.40;;;;;;5004419;28;20045;-75
2022/09/02 09:20:10;;;;;;;4.65;1.20;;;20.80;96.60;;;;;;5004632;28;20419;-75
2022/09/02 09:22:38;;;;;;;2.30;1.17;;;20.80;95.80;;;;;;4996001;28;20397;-75
2022/09/02 09:25:11;;;;;;;11.32;1.10;;;20.90;94.80;;;;;;5008571;28;20046;-75
2022/09/02 09:27:36;;;;;;;;;;;21.00;94.90;;;;;;5006224;28;20044;-75
2022/09/02 09:30:05;;;;;;;5.28;1.23;;;21.20;94.50;;;;;;4988059;28;19992;-75
2022/09/02 09:32:56;;;;;;;4.35;1.27;;;21.30;93.20;;;;;;5001308;28;20389;-75
2022/09/02 09:35:23;;;;;;;5.95;1.20;;;21.40;93.30;;;;;;5000193;28;20033;-75
2022/09/02 09:37:50;;;;;;;3.00;0.95;;;21.60;93.60;;;;;;4978651;28;20041;-75
2022/09/02 09:42:52;;;;;;;4.97;1.05;;;21.70;92.90;;;;;;4990984;28;20045;-75
2022/09/02 09:45:24;;;;;;;2.78;0.93;;;21.80;92.70;;;;;;4974270;28;20042;-75
2022/09/02 09:48:12;;;;;;;3.13;0.93;;;22.00;90.10;;;;;;4995509;28;20038;-76
2022/09/02 09:50:38;;;;;;;5.97;0.80;;;22.10;89.50;;;;;;4984797;28;20058;-75
2022/09/02 09:53:34;;;;;;;1.80;0.80;;;22.30;88.90;;;;;;5001857;28;20693;-76
2022/09/02 09:56:26;;;;;;;3.88;1.10;;;22.50;88.40;;;;;;4966660;28;20049;-76
2022/09/02 09:58:51;;;;;;;5.90;1.20;;;22.70;88.30;;;;;;5004887;28;20799;-76
2022/09/02 10:01:19;;;;;;;4.57;0.90;;;22.80;85.60;;;;;;5001425;28;20030;-76
2022/09/02 10:03:51;;;;;;;32.97;4.32;;;22.90;83.90;;;;;;5007308;28;20060;-76
2022/09/02 10:06:35;;;;;;;100.00;23.23;;;23.10;82.70;;;;;;4985837;28;20049;-76
2022/09/02 10:09:13;;;;;;;81.95;15.85;;;23.30;83.20;;;;;;4995916;28;20033;-76
2022/09/02 10:11:54;;;;;;;70.15;17.90;;;23.50;85.10;;;;;;4987926;28;20042;-76
2022/09/02 10:14:20;;;;;;;231.35;59.90;;;23.60;84.30;;;;;;4960660;28;20029;-76
2022/09/02 10:17:27;;;;;;;7.15;1.73;;;23.70;84.80;;;;;;5000892;28;20456;-76
2022/09/02 10:20:24;;;;;;;52.30;16.35;;;23.80;79.10;;;;;;5002283;28;20042;-76
2022/09/02 10:23:05;;;;;;;2.13;1.00;;;24.00;79.30;;;;;;4970429;28;20041;-77
2022/09/02 10:25:52;;;;;;;3.63;1.10;;;24.00;77.20;;;;;;4990356;28;20117;-76
2022/09/02 10:28:32;;;;;;;2.60;1.02;;;24.10;75.80;;;;;;4988330;28;20037;-76
2022/09/02 10:31:22;;;;;;;2.65;0.90;;;24.30;74.40;;;;;;5018757;28;20053;-76
2022/09/02 10:34:26;;;;;;;1.90;0.82;;;24.40;73.40;;;;;;4987829;28;20037;-76
2022/09/02 10:37:10;;;;;;;1.50;0.90;;;24.60;71.50;;;;;;4986314;28;20370;-76
2022/09/02 10:39:59;;;;;;;6.07;1.00;;;24.70;69.80;;;;;;4981853;28;20067;-77
2022/09/02 10:42:42;;;;;;;2.88;0.90;;;24.70;70.60;;;;;;5021542;28;20435;-77
2022/09/02 10:45:27;;;;;;;4.22;0.90;;;24.80;71.00;;;;;;5031062;28;20063;-76
2022/09/02 10:48:01;;;;;;;4.43;0.80;;;24.90;69.00;;;;;;4974026;28;20068;-77
2022/09/02 10:50:44;;;;;;;4.75;0.90;;;25.20;66.90;;;;;;4967410;28;20559;-77
2022/09/02 10:53:42;;;;;;;1.25;0.80;;;25.40;66.70;;;;;;4988221;28;20048;-77
2022/09/02 10:56:50;;;;;;;3.30;0.73;;;25.60;65.60;;;;;;4959418;28;20089;-77
2022/09/02 11:02:54;;;;;;;1.45;0.70;;;25.80;61.70;;;;;;5006018;28;20045;-77
2022/09/02 11:06:18;;;;;;;4.68;1.23;;;26.00;61.50;;;;;;5008623;28;20061;-77
2022/09/02 11:09:40;;;;;;;0.80;0.57;;;26.20;62.30;;;;;;5018107;28;20038;-77
2022/09/02 11:13:11;;;;;;;2.85;0.82;;;26.40;61.60;;;;;;5002091;28;20046;-77
2022/09/02 11:15:57;;;;;;;3.67;0.73;;;26.50;62.70;;;;;;4968472;28;20073;-77
2022/09/02 11:19:04;;;;;;;1.92;0.70;;;26.50;61.00;;;;;;5016329;28;20068;-77
2022/09/02 11:21:49;;;;;;;3.80;1.13;;;26.70;61.20;;;;;;5021980;28;20049;-77
2022/09/02 11:24:31;;;;;;;1.83;0.73;;;26.70;60.10;;;;;;4980561;28;20540;-76
2022/09/02 11:27:08;;;;;;;2.88;0.80;;;26.90;58.30;;;;;;4997305;28;20121;-78
2022/09/02 11:29:39;;;;;;;2.45;0.80;;;27.00;56.20;;;;;;5005869;28;20392;-78
2022/09/02 11:32:14;;;;;;;7.80;1.00;;;27.10;56.90;;;;;;4992230;28;20142;-78
2022/09/02 11:34:44;;;;;;;3.25;0.90;;;27.20;57.30;;;;;;5023582;28;20038;-73
2022/09/02 11:37:23;;;;;;;2.08;0.90;;;27.30;56.50;;;;;;5010715;28;20116;-72
2022/09/02 11:39:55;;;;;;;8.75;1.10;;;27.40;56.30;;;;;;4994712;28;20065;-73
2022/09/02 11:43:01;;;;;;;4.40;0.80;;;27.60;56.00;;;;;;5007549;28;20033;-72
2022/09/02 11:45:42;;;;;;;4.15;1.27;;;27.90;55.00;;;;;;5004983;28;20100;-72
2022/09/02 11:48:11;;;;;;;3.95;0.82;;;28.00;56.20;;;;;;4992652;28;20074;-72
2022/09/02 11:50:44;;;;;;;3.15;1.20;;;28.20;55.40;;;;;;4977406;28;20038;-73
2022/09/02 11:53:33;;;;;;;4.55;1.00;;;28.40;55.90;;;;;;4992797;28;20077;-72
2022/09/02 11:56:20;;;;;;;1.90;0.90;;;28.50;53.60;;;;;;5020148;28;20041;-72
2022/09/02 11:58:50;;;;;;;1.48;0.85;;;28.60;52.70;;;;;;4992068;28;20030;-73
2022/09/02 12:01:46;;;;;;;2.60;0.90;;;28.60;51.60;;;;;;4990113;28;20041;-72
2022/09/02 12:04:11;;;;;;;4.40;0.90;;;28.70;52.70;;;;;;4995091;28;20034;-72
2022/09/02 12:07:11;;;;;;;2.17;0.90;;;28.80;53.00;;;;;;5003436;28;20405;-72
2022/09/02 12:09:48;;;;;;;6.50;1.05;;;28.90;52.10;;;;;;4971307;28;20081;-72
2022/09/02 12:12:35;;;;;;;4.03;0.93;;;29.00;51.20;;;;;;4973321;28;20038;-72
2022/09/02 12:15:15;;;;;;;4.60;0.90;;;29.00;50.10;;;;;;4993263;28;20096;-73
2022/09/02 12:17:50;;;;;;;30.30;2.25;;;29.00;51.50;;;;;;4990886;28;20468;-72
2022/09/02 12:20:35;;;;;;;14.00;1.10;;;29.20;48.50;;;;;;4996633;28;20042;-72
2022/09/02 12:23:01;;;;;;;4.05;0.85;;;29.30;49.40;;;;;;5007764;28;20072;-72
2022/09/02 12:25:32;;;;;;;21.38;2.20;;;29.50;50.10;;;;;;4992291;28;20073;-72
2022/09/02 12:28:25;;;;;;;28.70;2.42;;;29.60;49.50;;;;;;4959616;28;20038;-73
2022/09/02 12:30:54;;;;;;;3.75;0.95;;;29.70;48.90;;;;;;5005228;28;20030;-72
2022/09/02 12:33:38;;;;;;;3.80;1.02;;;29.80;49.30;;;;;;4991006;28;20161;-72
2022/09/02 12:36:06;;;;;;;6.97;0.98;;;30.00;47.00;;;;;;5011573;28;20038;-72
2022/09/02 12:38:37;;;;;;;3.15;0.90;;;30.10;47.80;;;;;;4998428;28;20073;-70
2022/09/02 12:41:03;;;;;;;3.42;0.88;;;30.20;48.10;;;;;;4995581;28;20555;-72
2022/09/02 12:43:46;;;;;;;3.10;0.98;;;30.30;46.70;;;;;;4998625;28;20046;-73
2022/09/02 12:46:51;;;;;;;4.05;0.93;;;30.50;47.20;;;;;;4993216;28;20116;-73
2022/09/02 12:49:51;;;;;;;3.13;0.90;;;30.60;44.40;;;;;;5005139;28;20077;-73
2022/09/02 12:52:35;;;;;;;1.58;0.90;;;30.80;45.40;;;;;;4994330;28;20046;-73
2022/09/02 12:55:24;;;;;;;3.63;1.10;;;30.90;46.10;;;;;;5011430;28;20053;-71
2022/09/02 12:58:20;;;;;;;3.78;0.82;;;30.90;45.60;;;;;;5010263;28;20069;-73
2022/09/02 13:01:27;;;;;;;3.17;0.90;;;30.90;44.80;;;;;;4979460;28;20046;-73
2022/09/02 13:04:07;;;;;;;3.97;0.88;;;31.00;43.70;;;;;;4992947;28;20235;-73
2022/09/02 13:06:57;;;;;;;4.13;0.88;;;31.00;46.00;;;;;;5006766;28;20057;-73
2022/09/02 13:09:34;;;;;;;1.10;0.85;;;31.10;45.20;;;;;;4993054;28;20037;-73
2022/09/02 13:12:18;;;;;;;2.47;0.90;;;31.20;46.40;;;;;;4983368;28;20050;-73
2022/09/02 13:15:19;;;;;;;4.25;0.95;;;31.20;43.80;;;;;;4999707;28;20044;-72
2022/09/02 13:18:19;;;;;;;4.85;1.40;;;31.20;45.50;;;;;;4995306;28;20034;-72
2022/09/02 13:20:58;;;;;;;4.55;0.90;;;31.20;45.60;;;;;;4992291;28;20085;-72